Terminal Aerodrome Forecast
Issued by NWS Cleveland, OH

Home | Current Version | Previous Version | Graphics & Text | Print | Product List | Glossary On
Versions: 1 2 3 4 5 6 7 8 9 10 11 12 13 14 15 16 17 18 19 20 21 22 23 24 25 26 27
884
FTUS41 KCLE 252342
TAFCLE
TAF
KCLE 252342Z 2600/2706 26010KT P6SM SCT040
     FM260600 26005KT P6SM SCT100
     FM261000 30005KT P6SM SCT250
     FM261500 30007KT P6SM SCT250
     FM262100 35007KT P6SM SCT250=

USA.gov is the U.S. government's official web portal to all federal, state and local government web resources and services.